createdAt,value
2018-09-29T00:00:42.142Z,1026.52
2018-09-29T00:01:42.133Z,1026.59
2018-09-29T00:02:42.125Z,1026.58
2018-09-29T00:03:42.121Z,1026.58
2018-09-29T00:04:42.101Z,1026.60
2018-09-29T00:05:42.106Z,1026.60
2018-09-29T00:06:42.092Z,1026.53
2018-09-29T00:07:42.081Z,1026.53
2018-09-29T00:08:42.080Z,1026.55
2018-09-29T00:09:42.091Z,1026.54
2018-09-29T00:10:42.062Z,1026.54
2018-09-29T00:11:42.063Z,1026.56
2018-09-29T00:12:42.052Z,1026.56
2018-09-29T00:13:42.055Z,1026.57
2018-09-29T00:14:42.047Z,1026.58
2018-09-29T00:15:42.031Z,1026.58
2018-09-29T00:16:42.045Z,1026.56
2018-09-29T00:17:42.014Z,1026.52
2018-09-29T00:18:42.017Z,1026.53
2018-09-29T00:19:42.009Z,1026.52
2018-09-29T00:20:42.001Z,1026.51
2018-09-29T00:21:41.991Z,1026.51
2018-09-29T00:22:41.988Z,1026.51
2018-09-29T00:23:41.979Z,1026.46
2018-09-29T00:24:41.971Z,1026.44
2018-09-29T00:25:41.976Z,1026.47
2018-09-29T00:26:41.966Z,1026.47
2018-09-29T00:27:41.951Z,1026.41
2018-09-29T00:28:41.953Z,1026.39
2018-09-29T00:29:41.936Z,1026.35
2018-09-29T00:30:41.929Z,1026.38
2018-09-29T00:31:41.926Z,1026.30
2018-09-29T00:32:41.911Z,1026.30
2018-09-29T00:33:41.910Z,1026.26
2018-09-29T00:34:41.904Z,1026.28
2018-09-29T00:35:41.931Z,1026.30
2018-09-29T00:36:41.888Z,1026.32
2018-09-29T00:37:41.887Z,1026.38
2018-09-29T00:38:41.870Z,1026.37
2018-09-29T00:39:41.868Z,1026.36
2018-09-29T00:40:41.864Z,1026.32
2018-09-29T00:41:41.856Z,1026.31
2018-09-29T00:42:41.841Z,1026.32
2018-09-29T00:43:41.838Z,1026.32
2018-09-29T00:44:41.832Z,1026.39
2018-09-29T00:45:41.831Z,1026.40
2018-09-29T00:46:41.819Z,1026.42
2018-09-29T00:47:41.808Z,1026.41
2018-09-29T00:48:41.804Z,1026.43
2018-09-29T00:49:41.802Z,1026.43
2018-09-29T00:50:41.793Z,1026.39
2018-09-29T00:51:41.791Z,1026.42
2018-09-29T00:52:41.777Z,1026.43
2018-09-29T00:53:41.783Z,1026.45
2018-09-29T00:54:41.767Z,1026.44
2018-09-29T00:55:41.768Z,1026.42
2018-09-29T00:56:41.763Z,1026.43
2018-09-29T00:57:41.749Z,1026.45
2018-09-29T00:58:41.744Z,1026.46
2018-09-29T00:59:41.738Z,1026.44
2018-09-29T01:00:41.723Z,1026.44
2018-09-29T01:01:41.725Z,1026.48
2018-09-29T01:02:41.709Z,1026.46
2018-09-29T01:03:41.713Z,1026.46
2018-09-29T01:04:41.709Z,1026.45
2018-09-29T01:05:41.702Z,1026.46
2018-09-29T01:06:41.714Z,1026.43
2018-09-29T01:07:41.690Z,1026.40
2018-09-29T01:08:41.674Z,1026.42
2018-09-29T01:09:41.666Z,1026.40
2018-09-29T01:10:41.685Z,1026.43
2018-09-29T01:11:41.648Z,1026.41
2018-09-29T01:12:41.637Z,1026.39
2018-09-29T01:13:41.649Z,1026.38
2018-09-29T01:14:41.626Z,1026.39
2018-09-29T01:15:41.620Z,1026.40
2018-09-29T01:16:41.612Z,1026.43
2018-09-29T01:17:41.603Z,1026.42
2018-09-29T01:18:41.604Z,1026.43
2018-09-29T01:19:41.596Z,1026.41
2018-09-29T01:20:41.595Z,1026.36
2018-09-29T01:21:41.591Z,1026.34
2018-09-29T01:22:41.579Z,1026.35
2018-09-29T01:23:41.562Z,1026.32
2018-09-29T01:24:41.560Z,1026.29
2018-09-29T01:25:41.552Z,1026.27
2018-09-29T01:26:41.560Z,1026.31
2018-09-29T01:27:41.544Z,1026.31
2018-09-29T01:28:41.546Z,1026.32
2018-09-29T01:29:41.538Z,1026.36
2018-09-29T01:30:41.522Z,1026.35
2018-09-29T01:31:41.508Z,1026.34
2018-09-29T01:32:41.508Z,1026.34
2018-09-29T01:33:41.513Z,1026.31
2018-09-29T01:34:41.500Z,1026.31
2018-09-29T01:35:41.490Z,1026.28
2018-09-29T01:36:41.483Z,1026.27
2018-09-29T01:37:41.472Z,1026.24
2018-09-29T01:38:41.460Z,1026.26
2018-09-29T01:39:41.469Z,1026.26
2018-09-29T01:40:41.447Z,1026.28
2018-09-29T01:41:41.449Z,1026.28
2018-09-29T01:42:41.443Z,1026.29
2018-09-29T01:43:41.431Z,1026.25
2018-09-29T01:44:41.427Z,1026.26
2018-09-29T01:45:41.414Z,1026.26
2018-09-29T01:46:41.411Z,1026.23
2018-09-29T01:47:41.419Z,1026.24
2018-09-29T01:48:41.399Z,1026.23
2018-09-29T01:49:41.389Z,1026.23
2018-09-29T01:50:41.387Z,1026.27
2018-09-29T01:51:41.375Z,1026.25
2018-09-29T01:52:41.377Z,1026.23
2018-09-29T01:53:41.359Z,1026.21
2018-09-29T01:54:41.355Z,1026.25
2018-09-29T01:55:41.353Z,1026.21
2018-09-29T01:56:41.339Z,1026.24
2018-09-29T01:57:41.328Z,1026.21
2018-09-29T01:58:41.330Z,1026.22
2018-09-29T01:59:41.346Z,1026.22
2018-09-29T02:00:41.314Z,1026.22
2018-09-29T02:01:41.304Z,1026.17
2018-09-29T02:02:41.298Z,1026.15
2018-09-29T02:03:41.297Z,1026.13
2018-09-29T02:04:41.282Z,1026.15
2018-09-29T02:05:41.278Z,1026.14
2018-09-29T02:06:41.274Z,1026.14
2018-09-29T02:07:41.262Z,1026.10
2018-09-29T02:08:41.254Z,1026.12
2018-09-29T02:09:41.248Z,1026.14
2018-09-29T02:10:41.244Z,1026.10
2018-09-29T02:11:41.233Z,1026.14
2018-09-29T02:12:41.234Z,1026.18
2018-09-29T02:13:41.232Z,1026.16
2018-09-29T02:14:41.212Z,1026.14
2018-09-29T02:15:41.208Z,1026.13
2018-09-29T02:16:41.218Z,1026.16
2018-09-29T02:17:41.198Z,1026.17
2018-09-29T02:18:41.195Z,1026.18
2018-09-29T02:19:41.187Z,1026.19
2018-09-29T02:20:41.180Z,1026.21
2018-09-29T02:21:41.173Z,1026.23
2018-09-29T02:22:41.164Z,1026.26
2018-09-29T02:23:41.148Z,1026.27
2018-09-29T02:24:41.144Z,1026.27
2018-09-29T02:25:41.139Z,1026.26
2018-09-29T02:26:41.129Z,1026.27
2018-09-29T02:27:41.127Z,1026.28
2018-09-29T02:28:41.115Z,1026.27
2018-09-29T02:29:41.119Z,1026.28
2018-09-29T02:30:41.120Z,1026.28
2018-09-29T02:31:41.102Z,1026.27
2018-09-29T02:32:41.099Z,1026.33
2018-09-29T02:33:41.080Z,1026.33
2018-09-29T02:34:41.075Z,1026.33
2018-09-29T02:35:41.068Z,1026.34
2018-09-29T02:36:41.062Z,1026.32
2018-09-29T02:37:41.060Z,1026.32
2018-09-29T02:38:41.048Z,1026.27
2018-09-29T02:39:41.042Z,1026.28
2018-09-29T02:40:41.033Z,1026.29
2018-09-29T02:41:41.034Z,1026.30
2018-09-29T02:42:41.018Z,1026.27
2018-09-29T02:43:41.015Z,1026.28
2018-09-29T02:44:41.010Z,1026.28
2018-09-29T02:45:41.008Z,1026.31
2018-09-29T02:46:41.007Z,1026.31
2018-09-29T02:47:40.984Z,1026.29
2018-09-29T02:48:40.979Z,1026.28
2018-09-29T02:49:40.980Z,1026.28
2018-09-29T02:50:40.971Z,1026.26
2018-09-29T02:51:40.965Z,1026.28
2018-09-29T02:52:40.959Z,1026.31
2018-09-29T02:53:40.954Z,1026.32
2018-09-29T02:54:40.952Z,1026.37
2018-09-29T02:55:40.940Z,1026.29
2018-09-29T02:56:40.930Z,1026.32
2018-09-29T02:57:40.917Z,1026.27
2018-09-29T02:58:40.915Z,1026.29
2018-09-29T02:59:40.912Z,1026.27
2018-09-29T03:00:40.901Z,1026.29
2018-09-29T03:01:40.908Z,1026.33
2018-09-29T03:02:40.884Z,1026.29
2018-09-29T03:03:40.885Z,1026.36
2018-09-29T03:04:40.868Z,1026.32
2018-09-29T03:05:40.864Z,1026.29
2018-09-29T03:06:40.854Z,1026.29
2018-09-29T03:07:40.860Z,1026.31
2018-09-29T03:08:40.840Z,1026.31
2018-09-29T03:09:40.840Z,1026.34
2018-09-29T03:10:40.830Z,1026.35
2018-09-29T03:11:40.820Z,1026.31
2018-09-29T03:12:40.820Z,1026.32
2018-09-29T03:13:40.806Z,1026.32
2018-09-29T03:14:40.808Z,1026.36
2018-09-29T03:15:40.794Z,1026.34
2018-09-29T03:16:40.792Z,1026.31
2018-09-29T03:17:40.785Z,1026.34
2018-09-29T03:18:40.769Z,1026.33
2018-09-29T03:19:40.772Z,1026.31
2018-09-29T03:20:40.764Z,1026.28
2018-09-29T03:21:40.756Z,1026.30
2018-09-29T03:22:40.741Z,1026.28
2018-09-29T03:23:40.741Z,1026.29
2018-09-29T03:24:40.738Z,1026.29
2018-09-29T03:25:40.729Z,1026.31
2018-09-29T03:26:40.716Z,1026.33
2018-09-29T03:27:40.716Z,1026.36
2018-09-29T03:28:40.704Z,1026.35
2018-09-29T03:29:40.696Z,1026.37
2018-09-29T03:30:40.691Z,1026.39
2018-09-29T03:31:40.780Z,1026.39
2018-09-29T03:32:40.680Z,1026.38
2018-09-29T03:33:40.671Z,1026.43
2018-09-29T03:34:40.665Z,1026.41
2018-09-29T03:35:40.652Z,1026.37
2018-09-29T03:36:40.646Z,1026.38
2018-09-29T03:37:40.645Z,1026.34
2018-09-29T03:38:40.640Z,1026.34
2018-09-29T03:39:40.630Z,1026.36
2018-09-29T03:40:40.627Z,1026.35
2018-09-29T03:41:40.610Z,1026.30
2018-09-29T03:42:40.616Z,1026.32
2018-09-29T03:43:40.605Z,1026.29
2018-09-29T03:44:40.593Z,1026.29
2018-09-29T03:45:40.588Z,1026.28
2018-09-29T03:46:40.580Z,1026.27
2018-09-29T03:47:40.576Z,1026.26
2018-09-29T03:48:40.571Z,1026.23
2018-09-29T03:49:40.558Z,1026.29
2018-09-29T03:50:40.560Z,1026.26
2018-09-29T03:51:40.549Z,1026.25
2018-09-29T03:52:40.536Z,1026.24
2018-09-29T03:53:40.588Z,1026.25
2018-09-29T03:54:40.526Z,1026.24
2018-09-29T03:55:40.526Z,1026.21
2018-09-29T03:56:40.512Z,1026.25
2018-09-29T03:57:40.516Z,1026.24
2018-09-29T03:58:40.494Z,1026.22
2018-09-29T03:59:40.492Z,1026.24
2018-09-29T04:00:40.488Z,1026.21
2018-09-29T04:01:40.483Z,1026.20
2018-09-29T04:02:40.472Z,1026.23
2018-09-29T04:03:40.468Z,1026.20
2018-09-29T04:04:40.450Z,1026.20
2018-09-29T04:05:40.453Z,1026.22
2018-09-29T04:06:40.455Z,1026.22
2018-09-29T04:07:40.447Z,1026.21
2018-09-29T04:08:40.428Z,1026.18
2018-09-29T04:09:40.423Z,1026.21
2018-09-29T04:10:40.415Z,1026.22
2018-09-29T04:11:40.401Z,1026.19
2018-09-29T04:12:40.403Z,1026.20
2018-09-29T04:13:40.419Z,1026.20
2018-09-29T04:14:40.380Z,1026.19
2018-09-29T04:15:40.375Z,1026.15
2018-09-29T04:16:40.372Z,1026.15
2018-09-29T04:17:40.360Z,1026.14
2018-09-29T04:18:40.357Z,1026.15
2018-09-29T04:19:40.351Z,1026.20
2018-09-29T04:20:40.352Z,1026.19
2018-09-29T04:21:40.343Z,1026.25
2018-09-29T04:22:40.326Z,1026.27
2018-09-29T04:23:40.324Z,1026.27
2018-09-29T04:24:40.330Z,1026.25
2018-09-29T04:25:40.312Z,1026.25
2018-09-29T04:26:40.302Z,1026.22
2018-09-29T04:27:40.296Z,1026.21
2018-09-29T04:28:40.295Z,1026.24
2018-09-29T04:29:40.285Z,1026.23
2018-09-29T04:30:40.270Z,1026.24
2018-09-29T04:31:40.265Z,1026.24
2018-09-29T04:32:40.260Z,1026.21
2018-09-29T04:33:40.258Z,1026.26
2018-09-29T04:34:40.255Z,1026.20
2018-09-29T04:35:40.242Z,1026.22
2018-09-29T04:36:40.226Z,1026.22
2018-09-29T04:37:40.219Z,1026.23
2018-09-29T04:38:40.222Z,1026.20
2018-09-29T04:39:40.206Z,1026.22
2018-09-29T04:40:40.207Z,1026.22
2018-09-29T04:41:40.194Z,1026.24
2018-09-29T04:42:40.192Z,1026.21
2018-09-29T04:43:40.181Z,1026.19
2018-09-29T04:44:40.200Z,1026.21
2018-09-29T04:45:40.172Z,1026.22
2018-09-29T04:46:40.164Z,1026.22
2018-09-29T04:47:40.152Z,1026.20
2018-09-29T04:48:40.140Z,1026.20
2018-09-29T04:49:40.148Z,1026.24
2018-09-29T04:50:40.130Z,1026.23
2018-09-29T04:51:40.121Z,1026.25
2018-09-29T04:52:40.131Z,1026.28
2018-09-29T04:53:40.121Z,1026.30
2018-09-29T04:54:40.101Z,1026.29
2018-09-29T04:55:40.105Z,1026.28
2018-09-29T04:56:40.090Z,1026.27
2018-09-29T04:57:40.090Z,1026.29
2018-09-29T04:58:40.075Z,1026.25
2018-09-29T04:59:40.073Z,1026.16
2018-09-29T05:00:40.063Z,1026.19
2018-09-29T05:01:40.075Z,1026.17
2018-09-29T05:02:40.061Z,1026.18
2018-09-29T05:03:40.040Z,1026.20
2018-09-29T05:04:40.041Z,1026.22
2018-09-29T05:05:40.028Z,1026.24
2018-09-29T05:06:40.037Z,1026.27
2018-09-29T05:07:40.013Z,1026.29
2018-09-29T05:08:40.018Z,1026.29
2018-09-29T05:09:40.005Z,1026.35
2018-09-29T05:10:39.992Z,1026.32
2018-09-29T05:11:39.987Z,1026.32
2018-09-29T05:12:39.983Z,1026.33
2018-09-29T05:13:39.976Z,1026.32
2018-09-29T05:14:39.962Z,1026.29
2018-09-29T05:15:39.958Z,1026.32
2018-09-29T05:16:39.958Z,1026.32
2018-09-29T05:17:39.952Z,1026.32
2018-09-29T05:18:39.951Z,1026.35
2018-09-29T05:19:39.932Z,1026.33
2018-09-29T05:20:39.932Z,1026.37
2018-09-29T05:21:39.926Z,1026.34
2018-09-29T05:22:39.919Z,1026.34
2018-09-29T05:23:39.904Z,1026.35
2018-09-29T05:24:39.900Z,1026.36
2018-09-29T05:25:39.910Z,1026.34
2018-09-29T05:26:39.888Z,1026.36
2018-09-29T05:27:39.872Z,1026.34
2018-09-29T05:28:39.868Z,1026.37
2018-09-29T05:29:39.857Z,1026.35
2018-09-29T05:30:39.857Z,1026.34
2018-09-29T05:31:39.849Z,1026.38
2018-09-29T05:32:39.844Z,1026.36
2018-09-29T05:33:39.835Z,1026.40
2018-09-29T05:34:39.822Z,1026.44
2018-09-29T05:35:39.825Z,1026.40
2018-09-29T05:36:39.808Z,1026.41
2018-09-29T05:37:39.812Z,1026.45
2018-09-29T05:38:39.802Z,1026.44
2018-09-29T05:39:39.803Z,1026.46
2018-09-29T05:40:39.803Z,1026.46
2018-09-29T05:41:39.778Z,1026.47
2018-09-29T05:42:39.773Z,1026.48
2018-09-29T05:43:39.758Z,1026.43
2018-09-29T05:44:39.765Z,1026.45
2018-09-29T05:45:39.752Z,1026.46
2018-09-29T05:46:39.769Z,1026.48
2018-09-29T05:47:39.741Z,1026.53
2018-09-29T05:48:39.722Z,1026.52
2018-09-29T05:49:39.719Z,1026.57
2018-09-29T05:50:39.717Z,1026.55
2018-09-29T05:51:39.709Z,1026.56
2018-09-29T05:52:39.703Z,1026.54
2018-09-29T05:53:39.689Z,1026.53
2018-09-29T05:54:39.691Z,1026.52
2018-09-29T05:55:39.674Z,1026.55
2018-09-29T05:56:39.668Z,1026.52
2018-09-29T05:57:39.668Z,1026.55
2018-09-29T05:58:39.667Z,1026.59
2018-09-29T05:59:39.666Z,1026.63
2018-09-29T06:00:39.707Z,1026.62
2018-09-29T06:01:39.642Z,1026.61
2018-09-29T06:02:39.633Z,1026.62
2018-09-29T06:03:39.629Z,1026.64
2018-09-29T06:04:39.626Z,1026.63
2018-09-29T06:05:39.723Z,1026.62
2018-09-29T06:06:39.597Z,1026.60
2018-09-29T06:07:39.597Z,1026.64
2018-09-29T06:08:39.595Z,1026.67
2018-09-29T06:09:39.591Z,1026.66
2018-09-29T06:10:39.578Z,1026.65
2018-09-29T06:11:39.567Z,1026.65
2018-09-29T06:12:39.562Z,1026.69
2018-09-29T06:13:39.554Z,1026.72
2018-09-29T06:14:39.567Z,1026.71
2018-09-29T06:15:39.545Z,1026.75
2018-09-29T06:16:39.539Z,1026.77
2018-09-29T06:17:39.533Z,1026.76
2018-09-29T06:18:39.532Z,1026.77
2018-09-29T06:19:39.522Z,1026.77
2018-09-29T06:20:39.509Z,1026.77
2018-09-29T06:21:39.510Z,1026.75
2018-09-29T06:22:39.506Z,1026.75
2018-09-29T06:23:39.480Z,1026.77
2018-09-29T06:24:39.475Z,1026.78
2018-09-29T06:25:39.474Z,1026.82
2018-09-29T06:26:39.472Z,1026.80
2018-09-29T06:27:39.467Z,1026.84
2018-09-29T06:28:39.478Z,1026.83
2018-09-29T06:29:39.449Z,1026.84
2018-09-29T06:30:39.454Z,1026.83
2018-09-29T06:31:39.438Z,1026.82
2018-09-29T06:32:39.418Z,1026.80
2018-09-29T06:33:39.411Z,1026.80
2018-09-29T06:34:39.423Z,1026.79
2018-09-29T06:35:39.405Z,1026.76
2018-09-29T06:36:39.395Z,1026.73
2018-09-29T06:37:39.389Z,1026.73
2018-09-29T06:38:39.405Z,1026.75
2018-09-29T06:39:39.376Z,1026.77
2018-09-29T06:40:39.415Z,1026.79
2018-09-29T06:41:39.356Z,1026.75
2018-09-29T06:42:39.349Z,1026.73
2018-09-29T06:43:39.336Z,1026.68
2018-09-29T06:44:39.362Z,1026.70
2018-09-29T06:45:39.340Z,1026.72
2018-09-29T06:46:39.327Z,1026.73
2018-09-29T06:47:39.346Z,1026.76
2018-09-29T06:48:39.327Z,1026.77
2018-09-29T06:49:39.306Z,1026.77
2018-09-29T06:50:39.299Z,1026.79
2018-09-29T06:51:39.286Z,1026.77
2018-09-29T06:52:39.293Z,1026.73
2018-09-29T06:53:39.278Z,1026.73
2018-09-29T06:54:39.358Z,1026.72
2018-09-29T06:55:39.255Z,1026.74
2018-09-29T06:56:39.252Z,1026.72
2018-09-29T06:57:39.259Z,1026.71
2018-09-29T06:58:39.264Z,1026.75
2018-09-29T06:59:39.242Z,1026.72
2018-09-29T07:00:39.225Z,1026.74
2018-09-29T07:01:39.216Z,1026.71
2018-09-29T07:02:39.207Z,1026.68
2018-09-29T07:03:39.201Z,1026.67
2018-09-29T07:04:39.207Z,1026.70
2018-09-29T07:05:39.203Z,1026.68
2018-09-29T07:06:39.188Z,1026.66
2018-09-29T07:07:39.194Z,1026.68
2018-09-29T07:08:39.168Z,1026.70
2018-09-29T07:09:39.164Z,1026.75
2018-09-29T07:10:39.170Z,1026.73
2018-09-29T07:11:39.154Z,1026.72
2018-09-29T07:12:39.142Z,1026.74
2018-09-29T07:13:39.138Z,1026.75
2018-09-29T07:14:39.131Z,1026.75
2018-09-29T07:15:39.125Z,1026.72
2018-09-29T07:16:39.124Z,1026.75
2018-09-29T07:17:39.106Z,1026.72
2018-09-29T07:18:39.096Z,1026.72
2018-09-29T07:19:39.096Z,1026.73
2018-09-29T07:20:39.096Z,1026.74
2018-09-29T07:21:39.106Z,1026.76
2018-09-29T07:22:39.075Z,1026.71
2018-09-29T07:23:39.084Z,1026.74
2018-09-29T07:24:39.056Z,1026.72
2018-09-29T07:25:39.132Z,1026.75
2018-09-29T07:26:39.054Z,1026.77
2018-09-29T07:27:39.050Z,1026.81
2018-09-29T07:28:39.029Z,1026.80
2018-09-29T07:29:39.026Z,1026.76
2018-09-29T07:30:39.024Z,1026.75
2018-09-29T07:31:39.035Z,1026.76
2018-09-29T07:32:39.011Z,1026.76
2018-09-29T07:33:39.019Z,1026.77
2018-09-29T07:34:38.994Z,1026.77
2018-09-29T07:35:38.985Z,1026.77
2018-09-29T07:36:38.988Z,1026.75
2018-09-29T07:37:38.979Z,1026.75
2018-09-29T07:38:38.962Z,1026.75
2018-09-29T07:39:38.966Z,1026.72
2018-09-29T07:40:38.967Z,1026.74
2018-09-29T07:41:38.957Z,1026.74
2018-09-29T07:42:38.951Z,1026.74
2018-09-29T07:43:38.929Z,1026.73
2018-09-29T07:44:38.924Z,1026.73
2018-09-29T07:45:38.914Z,1026.75
2018-09-29T07:46:38.910Z,1026.74
2018-09-29T07:47:38.906Z,1026.75
2018-09-29T07:48:38.895Z,1026.74
2018-09-29T07:49:38.886Z,1026.74
2018-09-29T07:50:38.889Z,1026.75
2018-09-29T07:51:38.880Z,1026.74
2018-09-29T07:52:38.880Z,1026.71
2018-09-29T07:53:38.861Z,1026.73
2018-09-29T07:54:38.914Z,1026.72
2018-09-29T07:55:39.892Z,1026.71
2018-09-29T07:56:38.869Z,1026.76
2018-09-29T07:57:38.862Z,1026.77
2018-09-29T07:58:38.856Z,1026.77
2018-09-29T07:59:38.834Z,1026.74
2018-09-29T08:00:38.815Z,1026.77
2018-09-29T08:01:38.810Z,1026.74
2018-09-29T08:02:38.833Z,1026.78
2018-09-29T08:03:38.800Z,1026.82
2018-09-29T08:04:38.799Z,1026.78
2018-09-29T08:05:38.799Z,1026.81
2018-09-29T08:06:38.796Z,1026.83
2018-09-29T08:07:38.789Z,1026.82
2018-09-29T08:08:38.827Z,1026.86
2018-09-29T08:09:38.764Z,1026.85
2018-09-29T08:10:38.775Z,1026.83
2018-09-29T08:11:38.797Z,1026.83
2018-09-29T08:12:38.785Z,1026.80
2018-09-29T08:13:38.734Z,1026.80
2018-09-29T08:14:38.747Z,1026.82
2018-09-29T08:15:38.732Z,1026.76
2018-09-29T08:16:38.722Z,1026.75
2018-09-29T08:17:38.732Z,1026.68
2018-09-29T08:18:38.704Z,1026.72
2018-09-29T08:19:38.722Z,1026.70
2018-09-29T08:20:38.713Z,1026.68
2018-09-29T08:21:38.688Z,1026.62
2018-09-29T08:22:38.681Z,1026.63
2018-09-29T08:23:38.716Z,1026.61
2018-09-29T08:24:38.717Z,1026.68
2018-09-29T08:25:38.684Z,1026.65
2018-09-29T08:26:38.674Z,1026.64
2018-09-29T08:27:38.654Z,1026.64
2018-09-29T08:28:38.650Z,1026.62
2018-09-29T08:29:38.666Z,1026.57
2018-09-29T08:30:38.643Z,1026.58
2018-09-29T08:31:38.640Z,1026.55
2018-09-29T08:32:38.669Z,1026.56
2018-09-29T08:33:38.664Z,1026.55
2018-09-29T08:34:38.632Z,1026.56
2018-09-29T08:35:38.648Z,1026.61
2018-09-29T08:36:38.598Z,1026.59
2018-09-29T08:37:38.622Z,1026.57
2018-09-29T08:38:38.583Z,1026.58
2018-09-29T08:39:38.580Z,1026.57
2018-09-29T08:40:38.574Z,1026.59
2018-09-29T08:41:38.593Z,1026.56
2018-09-29T08:42:38.560Z,1026.58
2018-09-29T08:43:38.569Z,1026.50
2018-09-29T08:44:38.562Z,1026.50
2018-09-29T08:45:38.537Z,1026.46
2018-09-29T08:46:38.599Z,1026.45
2018-09-29T08:47:38.538Z,1026.48
2018-09-29T08:48:38.528Z,1026.41
2018-09-29T08:49:38.571Z,1026.42
2018-09-29T08:50:38.517Z,1026.42
2018-09-29T08:51:38.549Z,1026.43
2018-09-29T08:52:38.504Z,1026.42
2018-09-29T08:53:38.515Z,1026.38
2018-09-29T08:54:38.492Z,1026.37
2018-09-29T08:55:38.482Z,1026.37
2018-09-29T08:56:38.496Z,1026.40
2018-09-29T08:57:38.476Z,1026.41
2018-09-29T08:58:38.454Z,1026.37
2018-09-29T08:59:38.458Z,1026.35
2018-09-29T09:00:38.467Z,1026.38
2018-09-29T09:01:38.478Z,1026.38
2018-09-29T09:02:38.474Z,1026.35
2018-09-29T09:03:38.477Z,1026.35
2018-09-29T09:04:38.425Z,1026.35
2018-09-29T09:05:38.423Z,1026.38
2018-09-29T09:06:38.417Z,1026.36
2018-09-29T09:07:38.403Z,1026.34
2018-09-29T09:08:38.405Z,1026.34
2018-09-29T09:09:38.429Z,1026.35
2018-09-29T09:10:38.390Z,1026.33
2018-09-29T09:11:38.391Z,1026.34
2018-09-29T09:12:38.383Z,1026.33
2018-09-29T09:13:38.413Z,1026.30
2018-09-29T09:14:38.362Z,1026.30
2018-09-29T09:15:38.412Z,1026.28
2018-09-29T09:16:38.369Z,1026.32
2018-09-29T09:17:38.380Z,1026.27
2018-09-29T09:18:38.333Z,1026.25
2018-09-29T09:19:38.352Z,1026.26
2018-09-29T09:20:38.338Z,1026.26
2018-09-29T09:21:38.350Z,1026.27
2018-09-29T09:22:38.344Z,1026.20
2018-09-29T09:23:38.353Z,1026.23
2018-09-29T09:24:38.303Z,1026.22
2018-09-29T09:25:38.335Z,1026.17
2018-09-29T09:26:38.289Z,1026.18
2018-09-29T09:27:38.277Z,1026.13
2018-09-29T09:28:38.349Z,1026.16
2018-09-29T09:29:38.344Z,1026.13
2018-09-29T09:30:38.276Z,1026.13
2018-09-29T09:31:38.261Z,1026.14
2018-09-29T09:32:38.249Z,1026.08
2018-09-29T09:33:38.265Z,1026.09
2018-09-29T09:34:38.257Z,1026.09
2018-09-29T09:35:38.235Z,1026.04
2018-09-29T09:36:38.231Z,1026.08
2018-09-29T09:37:38.278Z,1026.06
2018-09-29T09:38:38.212Z,1026.03
2018-09-29T09:39:38.223Z,1026.06
2018-09-29T09:40:38.229Z,1026.06
2018-09-29T09:41:38.195Z,1026.07
2018-09-29T09:42:38.193Z,1026.06
2018-09-29T09:43:38.255Z,1026.06
2018-09-29T09:44:38.203Z,1026.05
2018-09-29T09:45:38.176Z,1026.09
2018-09-29T09:46:38.177Z,1026.06
2018-09-29T09:47:38.204Z,1026.05
2018-09-29T09:48:38.189Z,1026.07
2018-09-29T09:49:38.159Z,1026.03
2018-09-29T09:50:38.150Z,1025.98
2018-09-29T09:51:38.160Z,1025.97
2018-09-29T09:52:38.171Z,1025.99
2018-09-29T09:53:38.140Z,1025.98
2018-09-29T09:54:38.133Z,1025.93
2018-09-29T09:55:38.209Z,1025.91
2018-09-29T09:56:38.116Z,1025.86
2018-09-29T09:57:38.096Z,1025.85
2018-09-29T09:58:38.090Z,1025.84
2018-09-29T09:59:38.114Z,1025.85
2018-09-29T10:00:38.092Z,1025.81
2018-09-29T10:01:38.073Z,1025.76
2018-09-29T10:02:38.066Z,1025.76
2018-09-29T10:03:38.082Z,1025.77
2018-09-29T10:04:38.096Z,1025.78
2018-09-29T10:05:38.072Z,1025.76
2018-09-29T10:06:38.051Z,1025.75
2018-09-29T10:07:38.049Z,1025.75
2018-09-29T10:08:38.054Z,1025.77
2018-09-29T10:09:38.028Z,1025.71
2018-09-29T10:10:38.036Z,1025.76
2018-09-29T10:11:38.032Z,1025.70
2018-09-29T10:12:38.032Z,1025.67
2018-09-29T10:13:38.000Z,1025.65
2018-09-29T10:14:38.012Z,1025.63
2018-09-29T10:15:37.988Z,1025.64
2018-09-29T10:16:37.982Z,1025.60
2018-09-29T10:17:38.021Z,1025.57
2018-09-29T10:18:37.984Z,1025.62
2018-09-29T10:19:37.967Z,1025.61
2018-09-29T10:20:37.962Z,1025.60
2018-09-29T10:21:37.948Z,1025.57
2018-09-29T10:22:37.968Z,1025.55
2018-09-29T10:23:37.967Z,1025.55
2018-09-29T10:24:37.928Z,1025.49
2018-09-29T10:25:37.939Z,1025.45
2018-09-29T10:26:37.929Z,1025.44
2018-09-29T10:27:37.928Z,1025.41
2018-09-29T10:28:37.947Z,1025.41
2018-09-29T10:29:37.948Z,1025.43
2018-09-29T10:30:37.912Z,1025.42
2018-09-29T10:31:37.917Z,1025.39
2018-09-29T10:32:37.894Z,1025.39
2018-09-29T10:33:37.909Z,1025.37
2018-09-29T10:34:37.876Z,1025.36
2018-09-29T10:35:37.872Z,1025.36
2018-09-29T10:36:37.862Z,1025.32
2018-09-29T10:37:37.858Z,1025.35
2018-09-29T10:38:37.864Z,1025.31
2018-09-29T10:39:37.877Z,1025.30
2018-09-29T10:40:37.833Z,1025.27
2018-09-29T10:41:37.862Z,1025.23
2018-09-29T10:42:37.857Z,1025.22
2018-09-29T10:43:37.830Z,1025.24
2018-09-29T10:44:37.825Z,1025.17
2018-09-29T10:45:37.820Z,1025.14
2018-09-29T10:46:37.808Z,1025.13
2018-09-29T10:47:37.825Z,1025.08
2018-09-29T10:48:37.797Z,1025.08
2018-09-29T10:49:37.802Z,1025.09
2018-09-29T10:50:37.786Z,1025.09
2018-09-29T10:51:37.842Z,1025.07
2018-09-29T10:52:37.839Z,1025.07
2018-09-29T10:53:37.766Z,1025.08
2018-09-29T10:54:37.751Z,1025.08
2018-09-29T10:55:37.759Z,1025.05
2018-09-29T10:56:37.765Z,1025.03
2018-09-29T10:57:37.738Z,1025.00
2018-09-29T10:58:37.758Z,1024.98
2018-09-29T10:59:37.744Z,1024.96
2018-09-29T11:00:37.750Z,1024.97
2018-09-29T11:01:37.710Z,1024.99
2018-09-29T11:02:37.753Z,1024.96
2018-09-29T11:03:37.703Z,1024.92
2018-09-29T11:04:37.714Z,1024.95
2018-09-29T11:05:37.688Z,1024.93
2018-09-29T11:06:37.691Z,1024.86
2018-09-29T11:07:37.674Z,1024.89
2018-09-29T11:08:37.674Z,1024.88
2018-09-29T11:09:37.678Z,1024.89
2018-09-29T11:10:37.674Z,1024.85
2018-09-29T11:11:37.670Z,1024.84
2018-09-29T11:12:37.718Z,1024.84
2018-09-29T11:13:37.651Z,1024.87
2018-09-29T11:14:37.646Z,1024.85
2018-09-29T11:15:37.650Z,1024.86
2018-09-29T11:16:37.634Z,1024.86
2018-09-29T11:17:37.633Z,1024.84
2018-09-29T11:18:37.633Z,1024.77
2018-09-29T11:19:37.610Z,1024.74
2018-09-29T11:20:37.592Z,1024.71
2018-09-29T11:21:37.618Z,1024.73
2018-09-29T11:22:37.584Z,1024.74
2018-09-29T11:23:37.592Z,1024.74
2018-09-29T11:24:37.565Z,1024.72
2018-09-29T11:25:37.608Z,1024.70
2018-09-29T11:26:37.570Z,1024.71
2018-09-29T11:27:37.605Z,1024.68
2018-09-29T11:28:37.550Z,1024.67
2018-09-29T11:29:37.552Z,1024.63
2018-09-29T11:30:37.547Z,1024.67
2018-09-29T11:31:37.534Z,1024.65
2018-09-29T11:32:37.538Z,1024.67
2018-09-29T11:33:37.557Z,1024.64
2018-09-29T11:34:37.548Z,1024.56
2018-09-29T11:35:37.501Z,1024.51
2018-09-29T11:36:37.491Z,1024.49
2018-09-29T11:37:37.517Z,1024.49
2018-09-29T11:38:37.497Z,1024.46
2018-09-29T11:39:37.525Z,1024.48
2018-09-29T11:40:37.554Z,1024.46
2018-09-29T11:41:37.463Z,1024.47
2018-09-29T11:42:37.470Z,1024.49
2018-09-29T11:43:37.457Z,1024.41
2018-09-29T11:44:37.509Z,1024.38
2018-09-29T11:45:37.489Z,1024.35
2018-09-29T11:46:37.464Z,1024.33
2018-09-29T11:47:37.435Z,1024.33
2018-09-29T11:48:37.459Z,1024.30
2018-09-29T11:49:37.449Z,1024.24
2018-09-29T11:50:37.430Z,1024.23
2018-09-29T11:51:37.425Z,1024.21
2018-09-29T11:52:37.426Z,1024.27
2018-09-29T11:53:37.408Z,1024.21
2018-09-29T11:54:37.414Z,1024.20
2018-09-29T11:55:37.411Z,1024.17
2018-09-29T11:56:37.378Z,1024.14
2018-09-29T11:57:37.372Z,1024.13
2018-09-29T11:58:37.378Z,1024.12
2018-09-29T11:59:37.400Z,1024.09
2018-09-29T12:00:37.361Z,1024.07
2018-09-29T12:01:37.370Z,1024.04
2018-09-29T12:02:37.344Z,1024.04
2018-09-29T12:03:37.329Z,1024.01
2018-09-29T12:04:37.357Z,1023.97
2018-09-29T12:05:37.344Z,1023.98